Time;durP1;ratioP1;P1;durP2;ratioP2;P2;SDS_P1;SDS_P2;PMS_P1;PMS_P2;Temp;Humidity;BMP_temperature;BMP_pressure;BME280_temperature;BME280_humidity;BME280_pressure;Samples;Min_cycle;Max_cycle;Signal;HPM_P1;HPM_P2
2022/08/01 00:00:24;;;;;;;3.50;2.08;;;24.40;49.60;;;;;;5003073;28;20025;-49
2022/08/01 00:02:50;;;;;;;3.38;2.10;;;24.40;49.60;;;;;;5004961;28;20026;-49
2022/08/01 00:05:16;;;;;;;3.15;2.13;;;24.50;49.70;;;;;;5004482;28;20030;-47
2022/08/01 00:07:42;;;;;;;3.17;2.13;;;24.50;49.60;;;;;;5003009;28;20029;-48
2022/08/01 00:10:11;;;;;;;3.28;2.33;;;24.50;49.60;;;;;;5003817;28;20014;-49
2022/08/01 00:12:36;;;;;;;3.50;2.30;;;24.50;49.70;;;;;;5004806;28;20014;-48
2022/08/01 00:15:04;;;;;;;4.07;2.28;;;24.50;49.70;;;;;;5004992;28;20021;-49
2022/08/01 00:17:29;;;;;;;3.38;2.17;;;24.50;49.70;;;;;;5003218;28;20113;-48
2022/08/01 00:19:55;;;;;;;3.70;2.50;;;24.50;49.80;;;;;;5005203;28;20110;-49
2022/08/01 00:22:20;;;;;;;3.75;2.13;;;24.50;49.80;;;;;;5003490;28;20089;-48
2022/08/01 00:24:46;;;;;;;7.30;2.53;;;24.50;50.60;;;;;;5004578;28;20072;-49
2022/08/01 00:27:12;;;;;;;3.42;2.30;;;24.60;50.00;;;;;;5004866;28;20026;-49
2022/08/01 00:29:37;;;;;;;4.13;2.08;;;24.50;49.90;;;;;;5005322;28;20047;-49
2022/08/01 00:32:03;;;;;;;3.42;2.17;;;24.50;50.00;;;;;;5004986;28;20111;-49
2022/08/01 00:34:29;;;;;;;3.53;2.40;;;24.50;49.90;;;;;;5004856;28;20117;-48
2022/08/01 00:36:55;;;;;;;3.10;2.10;;;24.60;50.00;;;;;;5004634;28;20101;-48
2022/08/01 00:39:20;;;;;;;3.42;2.17;;;24.60;50.00;;;;;;5002770;28;20095;-49
2022/08/01 00:41:46;;;;;;;3.63;2.47;;;24.60;50.00;;;;;;5003947;28;20114;-48
2022/08/01 00:44:11;;;;;;;3.28;2.15;;;24.60;50.10;;;;;;5004663;28;20116;-48
2022/08/01 00:46:37;;;;;;;3.33;2.03;;;24.60;50.70;;;;;;5003669;28;20101;-48
2022/08/01 00:49:03;;;;;;;3.38;2.03;;;24.60;50.00;;;;;;5004037;28;20054;-48
2022/08/01 00:51:29;;;;;;;3.15;2.00;;;24.60;50.00;;;;;;5000702;28;20042;-48
2022/08/01 00:53:55;;;;;;;3.97;2.40;;;24.60;50.00;;;;;;5001917;28;20038;-49
2022/08/01 00:56:23;;;;;;;3.30;2.28;;;24.60;50.00;;;;;;5002997;28;20638;-48
2022/08/01 00:58:49;;;;;;;4.15;2.30;;;24.60;50.00;;;;;;5004307;28;20026;-48
2022/08/01 01:01:15;;;;;;;3.70;2.45;;;24.60;50.10;;;;;;5004093;28;20034;-49
2022/08/01 01:03:41;;;;;;;3.92;2.53;;;24.60;50.10;;;;;;5003024;28;20655;-49
2022/08/01 01:06:29;;;;;;;6.40;2.42;;;24.60;50.10;;;;;;5001894;28;20549;-49
2022/08/01 01:09:22;;;;;;;4.03;2.30;;;24.60;50.10;;;;;;4996750;28;20103;-47
2022/08/01 01:12:05;;;;;;;2.85;1.90;;;24.60;50.00;;;;;;5000576;28;20029;-48
2022/08/01 01:14:44;;;;;;;4.00;2.50;;;24.60;50.10;;;;;;5002349;28;20026;-48
2022/08/01 01:17:13;;;;;;;3.47;2.05;;;24.60;50.10;;;;;;5003468;28;20022;-48
2022/08/01 01:19:45;;;;;;;4.63;2.03;;;24.60;50.10;;;;;;5000764;28;20136;-49
2022/08/01 01:22:41;;;;;;;3.13;2.17;;;24.60;50.10;;;;;;5001230;28;20093;-48
2022/08/01 01:25:20;;;;;;;3.80;2.42;;;24.60;50.20;;;;;;5002479;28;20546;-48
2022/08/01 01:27:56;;;;;;;3.42;2.20;;;24.60;50.30;;;;;;5001905;28;20018;-48
2022/08/01 01:30:23;;;;;;;3.28;2.20;;;24.60;50.40;;;;;;5002330;28;20037;-48
2022/08/01 01:32:51;;;;;;;2.97;2.10;;;24.60;50.20;;;;;;5017300;28;20444;-48
2022/08/01 01:35:22;;;;;;;3.50;2.22;;;24.60;50.20;;;;;;5001402;28;20398;-48
2022/08/01 01:37:52;;;;;;;3.60;2.40;;;24.60;50.30;;;;;;5000755;28;20034;-48
2022/08/01 01:40:19;;;;;;;3.92;2.55;;;24.60;50.20;;;;;;5002596;28;20128;-47
2022/08/01 01:42:47;;;;;;;4.05;2.00;;;24.60;50.20;;;;;;5002444;28;20052;-48
2022/08/01 01:45:14;;;;;;;3.30;2.13;;;24.60;50.30;;;;;;5002997;28;20108;-47
2022/08/01 01:47:42;;;;;;;2.97;1.95;;;24.60;50.30;;;;;;5002876;28;20029;-48
2022/08/01 01:50:10;;;;;;;4.55;2.60;;;24.60;50.50;;;;;;5002275;28;20603;-48
2022/08/01 01:52:39;;;;;;;3.95;2.33;;;24.60;50.40;;;;;;5002248;28;20068;-47
2022/08/01 01:55:07;;;;;;;4.35;2.25;;;24.60;50.50;;;;;;5002053;28;20022;-48
2022/08/01 01:57:38;;;;;;;3.40;2.40;;;24.60;50.50;;;;;;5003526;28;20014;-47
2022/08/01 02:00:06;;;;;;;4.03;2.50;;;24.60;50.60;;;;;;5004528;28;20026;-48
2022/08/01 02:02:35;;;;;;;2.80;1.80;;;24.60;50.50;;;;;;5003357;28;20029;-48
2022/08/01 02:05:01;;;;;;;3.28;2.13;;;24.60;50.60;;;;;;5002838;28;20025;-48
2022/08/01 02:07:28;;;;;;;3.13;2.22;;;24.60;50.60;;;;;;5002944;28;20653;-49
2022/08/01 02:09:56;;;;;;;3.03;2.10;;;24.60;50.60;;;;;;5001420;28;20049;-48
2022/08/01 02:12:22;;;;;;;3.72;2.20;;;24.60;50.70;;;;;;5002727;28;20033;-49
2022/08/01 02:14:49;;;;;;;3.65;2.20;;;24.60;50.70;;;;;;5000188;28;20034;-49
2022/08/01 02:17:20;;;;;;;3.83;2.50;;;24.60;50.70;;;;;;5002287;28;20038;-47
2022/08/01 02:19:47;;;;;;;4.40;2.38;;;24.60;50.60;;;;;;5002013;28;20109;-48
2022/08/01 02:22:33;;;;;;;3.80;2.53;;;24.60;50.60;;;;;;5002769;28;20034;-47
2022/08/01 02:25:14;;;;;;;3.55;2.17;;;24.60;50.60;;;;;;5001876;28;20026;-47
2022/08/01 02:27:45;;;;;;;3.45;2.50;;;24.60;50.70;;;;;;5002957;28;20049;-49
2022/08/01 02:30:13;;;;;;;3.22;2.10;;;24.60;50.60;;;;;;5004479;28;20026;-47
2022/08/01 02:32:49;;;;;;;3.58;2.35;;;24.60;50.80;;;;;;5001320;28;20658;-48
2022/08/01 02:35:23;;;;;;;4.03;2.60;;;24.60;50.90;;;;;;5017405;28;20025;-47
2022/08/01 02:37:49;;;;;;;3.58;2.35;;;24.60;51.00;;;;;;5004013;28;20029;-48
2022/08/01 02:40:17;;;;;;;4.50;2.60;;;24.60;50.90;;;;;;5005816;28;20057;-48
2022/08/01 02:42:52;;;;;;;3.47;1.85;;;24.60;50.90;;;;;;5006855;28;20121;-48
2022/08/01 02:45:20;;;;;;;3.53;2.30;;;24.60;50.90;;;;;;5005759;28;20033;-48
2022/08/01 02:47:49;;;;;;;4.10;2.53;;;24.60;50.90;;;;;;5006573;28;20040;-48
2022/08/01 02:50:17;;;;;;;3.20;2.13;;;24.60;50.90;;;;;;5006469;28;20084;-48
2022/08/01 02:52:49;;;;;;;3.35;2.13;;;24.60;50.90;;;;;;5003953;28;20036;-49
2022/08/01 02:55:17;;;;;;;3.65;2.10;;;24.60;51.00;;;;;;5006665;28;20145;-49
2022/08/01 02:57:46;;;;;;;3.25;2.25;;;24.60;50.90;;;;;;5006300;28;20033;-48
2022/08/01 03:00:13;;;;;;;3.33;2.33;;;24.60;51.00;;;;;;5007424;28;20235;-47
2022/08/01 03:02:40;;;;;;;4.65;2.70;;;24.60;51.00;;;;;;5005691;28;20092;-47
2022/08/01 03:05:08;;;;;;;3.30;2.35;;;24.60;51.00;;;;;;5006214;28;20505;-48
2022/08/01 03:07:35;;;;;;;3.92;2.60;;;24.60;51.30;;;;;;5005708;28;20429;-48
2022/08/01 03:10:03;;;;;;;3.47;2.47;;;24.60;51.30;;;;;;5004537;28;20724;-47
2022/08/01 03:12:32;;;;;;;3.55;2.30;;;24.60;51.30;;;;;;5006618;28;20128;-47
2022/08/01 03:15:00;;;;;;;3.55;2.38;;;24.60;51.30;;;;;;5004968;28;20037;-48
2022/08/01 03:17:28;;;;;;;3.25;2.30;;;24.60;51.20;;;;;;5006160;28;20117;-47
2022/08/01 03:19:57;;;;;;;4.13;2.40;;;24.60;51.30;;;;;;5004841;28;20014;-48
2022/08/01 03:22:25;;;;;;;3.50;2.45;;;24.60;51.30;;;;;;5005619;28;20038;-47
2022/08/01 03:24:53;;;;;;;3.38;2.28;;;24.60;51.40;;;;;;5003009;28;20210;-48
2022/08/01 03:27:20;;;;;;;3.25;2.35;;;24.60;51.30;;;;;;5006167;28;20029;-48
2022/08/01 03:29:48;;;;;;;3.85;2.53;;;24.60;51.40;;;;;;5006366;28;20030;-48
2022/08/01 03:32:16;;;;;;;3.50;2.42;;;24.60;51.30;;;;;;5005500;28;20033;-47
2022/08/01 03:34:42;;;;;;;3.63;2.72;;;24.60;51.40;;;;;;5005624;28;20037;-47
2022/08/01 03:37:18;;;;;;;3.65;2.63;;;24.60;51.40;;;;;;5003371;28;20022;-47
2022/08/01 03:39:48;;;;;;;3.30;2.20;;;24.60;51.40;;;;;;5001921;28;20674;-48
2022/08/01 03:42:20;;;;;;;3.78;2.50;;;24.60;51.50;;;;;;5005328;28;20029;-49
2022/08/01 03:44:54;;;;;;;4.22;2.67;;;24.60;51.40;;;;;;5003755;28;20030;-47
2022/08/01 03:47:24;;;;;;;3.63;2.35;;;24.60;51.40;;;;;;5004584;28;20072;-48
2022/08/01 03:49:52;;;;;;;3.20;2.40;;;24.60;51.40;;;;;;5004185;28;20510;-47
2022/08/01 03:52:19;;;;;;;4.00;2.25;;;24.60;51.50;;;;;;5005299;28;20044;-47
2022/08/01 03:54:47;;;;;;;3.50;2.60;;;24.60;51.50;;;;;;5002905;28;20038;-48
2022/08/01 03:57:15;;;;;;;3.65;1.98;;;24.60;51.50;;;;;;5004487;28;20028;-48
2022/08/01 03:59:41;;;;;;;3.20;2.28;;;24.60;51.40;;;;;;5005740;28;20164;-47
2022/08/01 04:02:08;;;;;;;3.80;2.78;;;24.60;51.40;;;;;;5004331;28;20040;-48
2022/08/01 04:04:34;;;;;;;3.90;2.70;;;24.60;51.70;;;;;;5005205;28;20025;-48
2022/08/01 04:07:04;;;;;;;3.50;2.22;;;24.60;51.60;;;;;;5004642;28;20159;-48
2022/08/01 04:09:31;;;;;;;3.50;2.42;;;24.60;51.70;;;;;;5000754;28;20153;-48
2022/08/01 04:11:59;;;;;;;3.35;2.45;;;24.60;51.80;;;;;;5004417;28;20021;-48
2022/08/01 04:14:26;;;;;;;3.20;2.20;;;24.60;52.50;;;;;;5004970;28;20022;-48
2022/08/01 04:16:52;;;;;;;3.35;2.25;;;24.60;51.80;;;;;;5005306;28;20103;-47
2022/08/01 04:19:17;;;;;;;2.95;2.05;;;24.60;51.80;;;;;;5004485;28;20042;-47
2022/08/01 04:21:43;;;;;;;3.60;2.28;;;24.60;51.80;;;;;;5002116;28;20140;-48
2022/08/01 04:24:18;;;;;;;4.07;2.85;;;24.60;51.80;;;;;;5001193;28;20034;-47
2022/08/01 04:26:46;;;;;;;3.17;2.17;;;24.50;51.70;;;;;;4997658;28;20137;-48
2022/08/01 04:29:14;;;;;;;3.33;2.30;;;24.60;51.80;;;;;;4998161;28;20032;-48
2022/08/01 04:31:44;;;;;;;3.45;2.42;;;24.60;51.70;;;;;;5002776;28;20048;-47
2022/08/01 04:34:14;;;;;;;3.72;2.50;;;24.60;51.70;;;;;;5003623;28;20520;-48
2022/08/01 04:36:41;;;;;;;3.70;2.55;;;24.60;51.80;;;;;;5002208;28;20517;-47
2022/08/01 04:39:09;;;;;;;3.72;2.47;;;24.60;51.80;;;;;;5003272;28;20505;-47
2022/08/01 04:41:36;;;;;;;12.73;5.78;;;24.60;51.80;;;;;;5003316;28;20018;-47
2022/08/01 04:44:02;;;;;;;21.88;8.45;;;24.60;54.80;;;;;;5002084;28;20092;-47
2022/08/01 04:46:29;;;;;;;15.10;6.40;;;24.70;60.70;;;;;;5001633;28;20030;-46
2022/08/01 04:48:56;;;;;;;11.82;6.20;;;24.70;61.30;;;;;;5004161;28;20015;-48
2022/08/01 04:51:22;;;;;;;8.98;4.93;;;24.70;59.20;;;;;;5002596;28;20121;-47
2022/08/01 04:53:48;;;;;;;9.60;4.28;;;24.80;57.80;;;;;;5001697;28;20052;-47
2022/08/01 04:56:14;;;;;;;6.60;3.95;;;24.80;57.30;;;;;;5003551;28;20057;-47
2022/08/01 04:58:41;;;;;;;7.65;4.07;;;24.70;57.90;;;;;;4995582;28;20036;-47
2022/08/01 05:01:07;;;;;;;16.65;9.05;;;24.80;57.10;;;;;;5003813;28;20053;-47
2022/08/01 05:03:33;;;;;;;24.20;11.13;;;24.80;56.80;;;;;;5002107;28;20073;-47
2022/08/01 05:05:59;;;;;;;25.73;11.00;;;24.80;56.60;;;;;;4996394;28;20568;-47
2022/08/01 05:08:25;;;;;;;27.33;9.82;;;24.80;55.80;;;;;;5001177;28;20077;-47
2022/08/01 05:10:50;;;;;;;21.30;8.40;;;24.80;55.40;;;;;;5002050;28;20103;-47
2022/08/01 05:13:16;;;;;;;17.45;6.70;;;24.80;55.10;;;;;;5004107;28;20152;-47
2022/08/01 05:15:42;;;;;;;13.10;5.30;;;24.80;54.90;;;;;;5002508;28;20022;-47
2022/08/01 05:18:08;;;;;;;13.55;5.78;;;24.80;55.10;;;;;;5003003;28;20056;-47
2022/08/01 05:20:34;;;;;;;8.48;3.67;;;24.70;55.00;;;;;;5002438;28;20053;-48
2022/08/01 05:22:59;;;;;;;5.75;3.30;;;24.70;54.20;;;;;;5003198;28;20026;-47
2022/08/01 05:25:25;;;;;;;6.35;3.20;;;24.70;54.10;;;;;;5001896;28;20075;-48
2022/08/01 05:27:50;;;;;;;4.75;2.60;;;24.70;54.30;;;;;;5003062;28;20021;-48
2022/08/01 05:30:17;;;;;;;6.88;3.30;;;24.70;54.10;;;;;;5004300;28;20057;-48
2022/08/01 05:32:42;;;;;;;6.20;3.42;;;24.60;54.10;;;;;;5002009;28;20025;-46
2022/08/01 05:35:08;;;;;;;5.43;3.30;;;24.70;55.00;;;;;;5003113;28;20202;-46
2022/08/01 05:37:34;;;;;;;4.72;3.40;;;24.70;54.60;;;;;;5002421;28;20026;-47
2022/08/01 05:40:00;;;;;;;5.32;2.92;;;24.80;54.30;;;;;;5001376;28;20490;-47
2022/08/01 05:42:26;;;;;;;3.85;2.50;;;24.80;54.10;;;;;;5002740;28;20049;-46
2022/08/01 05:44:52;;;;;;;4.80;3.00;;;24.80;53.70;;;;;;5002330;28;20026;-47
2022/08/01 05:47:18;;;;;;;4.53;2.85;;;24.80;53.80;;;;;;5001828;28;20116;-48
2022/08/01 05:49:44;;;;;;;4.80;2.88;;;24.90;53.30;;;;;;5002080;28;20030;-48
2022/08/01 05:52:10;;;;;;;5.13;2.83;;;24.90;53.10;;;;;;5003359;28;20125;-48
2022/08/01 05:54:36;;;;;;;4.28;2.88;;;25.00;52.90;;;;;;5001208;28;20700;-47
2022/08/01 05:57:02;;;;;;;5.38;2.65;;;25.00;52.90;;;;;;5000789;28;20026;-48
2022/08/01 05:59:29;;;;;;;4.75;2.80;;;25.00;52.80;;;;;;5002540;28;20033;-47
2022/08/01 06:01:54;;;;;;;3.53;2.38;;;25.00;52.70;;;;;;5001382;28;20183;-46
2022/08/01 06:04:20;;;;;;;4.07;2.50;;;25.10;52.80;;;;;;5003394;28;20034;-47
2022/08/01 06:06:46;;;;;;;7.10;2.70;;;25.10;53.00;;;;;;5001497;28;20026;-48
2022/08/01 06:09:11;;;;;;;4.25;2.60;;;25.10;53.10;;;;;;5003560;28;20446;-47
2022/08/01 06:11:37;;;;;;;4.75;3.00;;;25.10;53.00;;;;;;5003274;28;20395;-47
2022/08/01 06:14:03;;;;;;;5.80;2.45;;;25.10;52.90;;;;;;5003061;28;20095;-47
2022/08/01 06:16:28;;;;;;;4.95;2.83;;;25.10;53.00;;;;;;5000414;28;20109;-47
2022/08/01 06:18:54;;;;;;;3.72;2.53;;;25.20;53.10;;;;;;5002428;28;20022;-47
2022/08/01 06:21:20;;;;;;;3.20;2.30;;;25.20;52.90;;;;;;5002755;28;20030;-47
2022/08/01 06:23:46;;;;;;;3.50;2.22;;;25.10;52.80;;;;;;5000431;28;20092;-47
2022/08/01 06:26:11;;;;;;;5.10;2.17;;;25.20;53.00;;;;;;5002554;28;20010;-47
2022/08/01 06:28:38;;;;;;;3.55;2.53;;;25.20;53.20;;;;;;5002524;28;20072;-46
2022/08/01 06:31:04;;;;;;;5.43;2.70;;;25.20;53.10;;;;;;5001297;28;20025;-47
2022/08/01 06:33:29;;;;;;;3.60;2.30;;;25.20;53.20;;;;;;5002077;28;20474;-47
2022/08/01 06:35:55;;;;;;;4.50;2.38;;;25.20;53.30;;;;;;5001802;28;20029;-47
2022/08/01 06:38:22;;;;;;;4.03;2.42;;;25.20;53.50;;;;;;5001421;28;20061;-48
2022/08/01 06:40:48;;;;;;;4.35;2.40;;;25.20;53.70;;;;;;5001317;28;20030;-48
2022/08/01 06:43:13;;;;;;;5.65;2.55;;;25.20;53.80;;;;;;5003128;28;20032;-47
2022/08/01 06:45:40;;;;;;;5.68;2.53;;;25.20;53.80;;;;;;5002273;28;20022;-47
2022/08/01 06:48:06;;;;;;;4.45;2.40;;;25.20;53.80;;;;;;5002766;28;20091;-47
2022/08/01 06:50:35;;;;;;;3.63;2.10;;;25.20;53.80;;;;;;5003246;28;20407;-47
2022/08/01 06:53:01;;;;;;;3.35;2.10;;;25.20;53.70;;;;;;5002873;28;20045;-47
2022/08/01 06:55:26;;;;;;;3.30;2.20;;;25.20;53.50;;;;;;5002185;28;20037;-47
2022/08/01 06:57:52;;;;;;;4.20;2.40;;;25.20;53.40;;;;;;5002894;28;20072;-47
2022/08/01 07:00:22;;;;;;;3.47;2.30;;;25.30;53.30;;;;;;5003094;28;20278;-47
2022/08/01 07:02:52;;;;;;;2.90;1.92;;;25.30;53.30;;;;;;5003000;28;20057;-47
2022/08/01 07:05:19;;;;;;;2.97;1.98;;;25.30;53.20;;;;;;5002522;28;20482;-47
2022/08/01 07:07:44;;;;;;;3.80;1.90;;;25.30;53.10;;;;;;5002999;28;20176;-47
2022/08/01 07:10:11;;;;;;;3.45;2.45;;;25.30;53.10;;;;;;5001481;28;20424;-47
2022/08/01 07:12:37;;;;;;;4.07;2.10;;;25.30;53.10;;;;;;5003070;28;20026;-46
2022/08/01 07:15:08;;;;;;;3.13;2.05;;;25.30;53.00;;;;;;5002894;28;20745;-47
2022/08/01 07:17:40;;;;;;;3.45;2.30;;;25.30;53.00;;;;;;5002907;28;20026;-48
2022/08/01 07:20:11;;;;;;;5.53;2.40;;;25.30;52.90;;;;;;5003029;28;20143;-47
2022/08/01 07:22:38;;;;;;;3.35;2.38;;;25.30;52.90;;;;;;5003938;28;20026;-47
2022/08/01 07:25:05;;;;;;;3.40;2.10;;;25.30;52.90;;;;;;5005927;28;20032;-47
2022/08/01 07:27:31;;;;;;;4.13;2.00;;;25.30;52.90;;;;;;5006393;28;20129;-47
2022/08/01 07:29:56;;;;;;;4.45;2.15;;;25.30;52.90;;;;;;5006617;28;20108;-47
2022/08/01 07:32:22;;;;;;;3.47;2.28;;;25.30;52.80;;;;;;5006030;28;20037;-47
2022/08/01 07:34:48;;;;;;;3.97;2.33;;;25.30;52.80;;;;;;5006211;28;20034;-48
2022/08/01 07:37:14;;;;;;;5.60;2.53;;;25.30;52.80;;;;;;5006369;28;20037;-47
2022/08/01 07:39:39;;;;;;;4.47;2.10;;;25.30;52.80;;;;;;5006329;28;20042;-48
2022/08/01 07:42:05;;;;;;;3.55;2.10;;;25.30;52.70;;;;;;5006272;28;20418;-47
2022/08/01 07:44:31;;;;;;;4.10;2.67;;;25.30;52.60;;;;;;5005810;28;20072;-47
2022/08/01 07:46:56;;;;;;;3.35;2.00;;;25.20;52.60;;;;;;5005301;28;20034;-48
2022/08/01 07:49:22;;;;;;;3.92;1.88;;;25.30;52.60;;;;;;5006282;28;20029;-47
2022/08/01 07:51:48;;;;;;;3.33;2.03;;;25.30;52.50;;;;;;5006184;28;20030;-47
2022/08/01 07:54:14;;;;;;;3.90;2.53;;;25.30;52.50;;;;;;5005634;28;20463;-47
2022/08/01 07:56:39;;;;;;;3.88;2.30;;;25.30;52.50;;;;;;5037495;28;20050;-47
2022/08/01 07:59:05;;;;;;;3.47;2.00;;;25.30;52.50;;;;;;5005942;28;20029;-47
2022/08/01 08:01:31;;;;;;;3.63;2.17;;;25.30;52.50;;;;;;5022522;28;20043;-46
2022/08/01 08:03:56;;;;;;;4.03;2.33;;;25.30;52.60;;;;;;5011644;28;20621;-47
2022/08/01 08:06:22;;;;;;;3.72;2.55;;;25.30;52.60;;;;;;5005754;28;20529;-47
2022/08/01 08:08:48;;;;;;;3.63;2.08;;;25.30;52.50;;;;;;5005561;28;20026;-47
2022/08/01 08:11:13;;;;;;;4.63;2.20;;;25.30;52.50;;;;;;5006026;28;20034;-47
2022/08/01 08:13:39;;;;;;;4.57;2.38;;;25.30;52.50;;;;;;5005804;28;20510;-48
2022/08/01 08:16:04;;;;;;;4.70;2.10;;;25.30;52.50;;;;;;5004934;28;20041;-47
2022/08/01 08:18:30;;;;;;;4.07;2.13;;;25.30;52.50;;;;;;5006061;28;20025;-47
2022/08/01 08:20:56;;;;;;;3.58;2.05;;;25.30;52.50;;;;;;5005388;28;20568;-48
2022/08/01 08:26:06;;;;;;;4.15;2.08;;;25.30;52.40;;;;;;5004991;28;20072;-47
2022/08/01 08:28:32;;;;;;;2.95;1.90;;;25.30;52.40;;;;;;5005333;28;20029;-47
2022/08/01 08:30:57;;;;;;;3.75;1.98;;;25.30;52.30;;;;;;5005200;28;20030;-48
2022/08/01 08:33:23;;;;;;;4.03;2.28;;;25.30;52.30;;;;;;5004393;28;20038;-47
2022/08/01 08:35:49;;;;;;;3.75;2.00;;;25.30;52.30;;;;;;5004130;28;20034;-47
2022/08/01 08:38:14;;;;;;;3.80;2.10;;;25.30;52.30;;;;;;5005182;28;20234;-47
2022/08/01 08:40:40;;;;;;;4.18;2.10;;;25.30;52.20;;;;;;5004739;28;20064;-47
2022/08/01 08:43:06;;;;;;;4.57;2.45;;;25.30;52.30;;;;;;5004514;28;20462;-47
2022/08/01 08:45:33;;;;;;;4.07;2.17;;;25.30;52.20;;;;;;5004793;28;20536;-47
2022/08/01 08:47:59;;;;;;;3.38;1.95;;;25.30;52.20;;;;;;5004501;28;20544;-47
2022/08/01 08:50:26;;;;;;;3.25;1.83;;;25.30;52.20;;;;;;5004574;28;20034;-48
2022/08/01 08:52:54;;;;;;;4.22;2.00;;;25.30;52.20;;;;;;5004843;28;20026;-47
2022/08/01 08:55:21;;;;;;;4.15;1.98;;;25.30;52.20;;;;;;5004378;28;20162;-47
2022/08/01 08:57:47;;;;;;;5.32;2.50;;;25.30;52.30;;;;;;5004761;28;20310;-47
2022/08/01 09:00:14;;;;;;;4.63;2.25;;;25.30;52.30;;;;;;5010514;28;20061;-47
2022/08/01 09:02:44;;;;;;;6.28;2.60;;;25.30;52.30;;;;;;5023020;28;20079;-47
2022/08/01 09:05:11;;;;;;;5.50;2.40;;;25.30;52.30;;;;;;5023726;28;20453;-47
2022/08/01 09:07:37;;;;;;;5.70;2.63;;;25.30;52.30;;;;;;5024150;28;20057;-47
2022/08/01 09:10:04;;;;;;;3.92;2.15;;;25.30;52.20;;;;;;5010506;28;20060;-47
2022/08/01 09:12:29;;;;;;;4.63;2.42;;;25.30;52.10;;;;;;5004345;28;20038;-47
2022/08/01 09:14:55;;;;;;;4.45;2.22;;;25.30;52.10;;;;;;5004030;28;20056;-47
2022/08/01 09:17:21;;;;;;;5.22;2.65;;;25.30;52.10;;;;;;5004370;28;20088;-47
2022/08/01 09:19:54;;;;;;;5.68;2.42;;;25.30;52.00;;;;;;5004460;28;20026;-47
2022/08/01 09:22:24;;;;;;;3.35;2.13;;;25.30;52.00;;;;;;5004223;28;20076;-46
2022/08/01 09:25:05;;;;;;;3.97;2.20;;;25.30;52.00;;;;;;5003825;28;20048;-47
2022/08/01 09:27:32;;;;;;;3.85;2.20;;;25.30;52.00;;;;;;5035674;28;20026;-47
2022/08/01 09:30:18;;;;;;;5.43;2.65;;;25.30;52.00;;;;;;5008378;28;20026;-47
2022/08/01 09:32:54;;;;;;;4.25;2.10;;;25.30;52.00;;;;;;5023468;28;20037;-47
2022/08/01 09:35:25;;;;;;;3.20;1.98;;;25.30;52.00;;;;;;5008304;28;20035;-47
2022/08/01 09:37:51;;;;;;;2.97;1.50;;;25.30;52.00;;;;;;5003781;28;20033;-47
2022/08/01 09:40:16;;;;;;;3.47;1.88;;;25.30;52.10;;;;;;5003861;28;20030;-47
2022/08/01 09:42:42;;;;;;;3.78;1.98;;;25.30;52.00;;;;;;5003831;28;20026;-47
2022/08/01 09:45:08;;;;;;;3.53;1.90;;;25.30;52.00;;;;;;5003618;28;20700;-47
2022/08/01 09:47:38;;;;;;;3.30;1.52;;;25.30;52.00;;;;;;5003687;28;20018;-47
2022/08/01 09:50:05;;;;;;;2.92;1.60;;;25.30;52.00;;;;;;5004347;28;20037;-47
2022/08/01 09:52:31;;;;;;;3.95;1.83;;;25.30;52.00;;;;;;5003824;28;20044;-47
2022/08/01 09:54:57;;;;;;;3.20;2.00;;;25.30;52.10;;;;;;5003386;28;20163;-47
2022/08/01 09:57:23;;;;;;;3.25;1.88;;;25.30;52.00;;;;;;5004046;28;20340;-47
2022/08/01 09:59:51;;;;;;;3.28;1.65;;;25.40;52.00;;;;;;5006527;28;20159;-47
2022/08/01 10:02:37;;;;;;;3.03;1.70;;;25.40;52.00;;;;;;5023431;28;20072;-47
2022/08/01 10:05:09;;;;;;;3.13;1.60;;;25.30;52.00;;;;;;5022956;28;20052;-47
2022/08/01 10:07:36;;;;;;;3.25;1.60;;;25.30;52.00;;;;;;5024055;28;20022;-47
2022/08/01 10:10:22;;;;;;;3.30;1.70;;;25.30;52.00;;;;;;5010861;28;20498;-47
2022/08/01 10:12:51;;;;;;;2.78;1.67;;;25.40;52.00;;;;;;5003382;28;20597;-47
2022/08/01 10:15:17;;;;;;;2.85;1.52;;;25.40;52.00;;;;;;5003322;28;20036;-47
2022/08/01 10:17:53;;;;;;;3.08;1.85;;;25.40;52.00;;;;;;5035221;28;20030;-46
2022/08/01 10:20:20;;;;;;;3.75;2.22;;;25.40;51.90;;;;;;5003600;28;20045;-47
2022/08/01 10:22:46;;;;;;;3.22;1.98;;;25.40;52.00;;;;;;5002969;28;20113;-48
2022/08/01 10:25:17;;;;;;;2.72;1.45;;;25.40;52.00;;;;;;5003059;28;20030;-47
2022/08/01 10:27:45;;;;;;;3.42;1.88;;;25.40;52.00;;;;;;5003731;28;20037;-47
2022/08/01 10:30:11;;;;;;;3.25;1.58;;;25.40;52.00;;;;;;5009415;28;20533;-47
2022/08/01 10:32:37;;;;;;;2.83;1.60;;;25.40;52.00;;;;;;5022726;28;20488;-47
2022/08/01 10:35:06;;;;;;;2.08;1.30;;;25.40;52.00;;;;;;5023088;28;20361;-47
2022/08/01 10:37:35;;;;;;;2.72;1.60;;;25.40;52.00;;;;;;5023135;28;20627;-47
2022/08/01 10:40:01;;;;;;;3.47;1.67;;;25.40;51.90;;;;;;5011744;28;20520;-47
2022/08/01 10:42:27;;;;;;;2.63;1.77;;;25.40;51.90;;;;;;5003099;28;20030;-47
2022/08/01 10:44:54;;;;;;;2.65;1.70;;;25.40;51.90;;;;;;5003234;28;20029;-47
2022/08/01 10:47:55;;;;;;;2.53;1.40;;;25.40;51.90;;;;;;5003454;28;20367;-47
2022/08/01 10:50:46;;;;;;;3.28;1.65;;;25.40;51.80;;;;;;5003362;28;20113;-47
2022/08/01 10:53:36;;;;;;;2.42;1.38;;;25.40;51.80;;;;;;5003046;28;20065;-47
2022/08/01 10:56:05;;;;;;;3.47;1.70;;;25.40;51.80;;;;;;5001526;28;20794;-47
2022/08/01 10:58:38;;;;;;;2.80;1.70;;;25.40;51.80;;;;;;5005556;28;20033;-47
2022/08/01 11:01:24;;;;;;;2.55;1.48;;;25.40;51.80;;;;;;5019629;28;20393;-47
2022/08/01 11:04:11;;;;;;;2.95;1.80;;;25.50;51.80;;;;;;5027024;28;20031;-46
2022/08/01 11:06:45;;;;;;;2.72;1.50;;;25.50;51.80;;;;;;5026194;28;20021;-47
2022/08/01 11:09:13;;;;;;;2.25;1.50;;;25.40;51.80;;;;;;5022301;28;20022;-49
2022/08/01 11:12:06;;;;;;;2.53;1.60;;;25.40;51.80;;;;;;5006434;28;20041;-47
2022/08/01 11:14:33;;;;;;;2.50;1.50;;;25.40;51.80;;;;;;5006592;28;20235;-47
2022/08/01 11:17:34;;;;;;;2.55;1.45;;;25.40;51.70;;;;;;5006563;28;20074;-47
2022/08/01 11:20:19;;;;;;;2.67;1.60;;;25.40;51.80;;;;;;5006662;28;20069;-47
2022/08/01 11:23:00;;;;;;;2.92;1.40;;;25.40;51.80;;;;;;5006198;28;20025;-47
2022/08/01 11:25:38;;;;;;;2.33;1.30;;;25.40;51.80;;;;;;5002969;28;20434;-47
2022/08/01 11:28:23;;;;;;;2.53;1.27;;;25.50;51.80;;;;;;5006447;28;20029;-47
2022/08/01 11:31:16;;;;;;;2.90;1.40;;;25.40;51.80;;;;;;5006691;28;20030;-47
2022/08/01 11:33:41;;;;;;;3.00;1.63;;;25.40;51.80;;;;;;4997961;28;20034;-46
2022/08/01 11:36:10;;;;;;;2.08;1.33;;;25.50;51.80;;;;;;5021239;28;20391;-47
2022/08/01 11:38:41;;;;;;;2.50;1.42;;;25.40;51.80;;;;;;5005873;28;20084;-47
2022/08/01 11:41:17;;;;;;;1.67;1.08;;;25.50;51.80;;;;;;5006063;28;20165;-47
2022/08/01 11:44:08;;;;;;;2.58;1.30;;;25.50;51.80;;;;;;5005802;28;20049;-47
2022/08/01 11:46:52;;;;;;;2.72;1.52;;;25.50;51.70;;;;;;5005776;28;20092;-47
2022/08/01 11:49:44;;;;;;;2.75;1.60;;;25.50;51.70;;;;;;5005827;28;20105;-47
2022/08/01 11:52:15;;;;;;;2.67;1.30;;;25.50;51.70;;;;;;5006138;28;20061;-47
2022/08/01 11:54:51;;;;;;;2.83;1.65;;;25.50;51.70;;;;;;5005239;28;20038;-48
2022/08/01 11:57:33;;;;;;;3.17;1.35;;;25.50;51.70;;;;;;5005885;28;20329;-47
2022/08/01 11:59:59;;;;;;;2.50;1.55;;;25.50;51.70;;;;;;5010037;28;20036;-47
2022/08/01 12:02:33;;;;;;;2.70;1.80;;;25.50;51.70;;;;;;5025647;28;20025;-46
2022/08/01 12:05:26;;;;;;;2.92;1.60;;;25.50;51.70;;;;;;5025189;28;20021;-47
2022/08/01 12:07:52;;;;;;;2.55;1.40;;;25.50;51.70;;;;;;5023207;28;20507;-47
2022/08/01 12:10:20;;;;;;;1.83;1.20;;;25.50;51.70;;;;;;5012685;28;20026;-47
2022/08/01 12:12:48;;;;;;;2.63;1.40;;;25.50;51.60;;;;;;5005107;28;20100;-47
2022/08/01 12:15:14;;;;;;;2.40;1.27;;;25.50;52.30;;;;;;5005384;28;20104;-47
2022/08/01 12:17:42;;;;;;;2.30;1.30;;;25.50;51.60;;;;;;5005221;28;20444;-47
2022/08/01 12:20:10;;;;;;;2.65;1.55;;;25.50;51.60;;;;;;5004460;28;20167;-47
2022/08/01 12:22:37;;;;;;;2.58;1.42;;;25.50;51.60;;;;;;5005635;28;20112;-48
2022/08/01 12:25:11;;;;;;;2.58;1.48;;;25.50;51.60;;;;;;5005340;28;20510;-47
2022/08/01 12:27:38;;;;;;;2.85;1.50;;;25.50;51.60;;;;;;5005477;28;20117;-47
2022/08/01 12:30:15;;;;;;;2.55;1.33;;;25.50;51.50;;;;;;5010434;28;20014;-47
2022/08/01 12:32:43;;;;;;;2.45;1.33;;;25.50;51.50;;;;;;5024823;28;20461;-47
2022/08/01 12:35:17;;;;;;;2.25;1.17;;;25.50;51.50;;;;;;5024988;28;20025;-47
2022/08/01 12:37:45;;;;;;;2.00;1.33;;;25.50;51.40;;;;;;5024706;28;20025;-47
2022/08/01 12:40:22;;;;;;;2.85;1.50;;;25.50;51.40;;;;;;5013911;28;20099;-47
2022/08/01 12:42:51;;;;;;;2.33;1.30;;;25.50;51.40;;;;;;5005377;28;20694;-47
2022/08/01 12:45:42;;;;;;;2.05;1.15;;;25.50;51.40;;;;;;5004579;28;20088;-47
2022/08/01 12:48:13;;;;;;;2.40;1.48;;;25.60;51.40;;;;;;5002509;28;20030;-47
2022/08/01 12:50:44;;;;;;;2.78;1.30;;;25.50;51.40;;;;;;5004878;28;20022;-47
2022/08/01 12:53:10;;;;;;;2.50;1.52;;;25.60;51.40;;;;;;5004934;28;20105;-47
2022/08/01 12:55:50;;;;;;;1.88;1.17;;;25.50;51.40;;;;;;5003942;28;20113;-47
2022/08/01 12:58:17;;;;;;;2.13;1.30;;;25.50;51.40;;;;;;5005035;28;20049;-47